Goshen, Illinois
Current Conditions -  °F | °C
As of 10:35 AM on Monday 26 Jan 2015 (Local Time) from KC75 Reporting Station
Light Snow Light Snow  
Wind Chill: 22°   Ceiling: 400
Heat Index: 22°   Visibility: 1.7mi
Dew Point: 19°   Wind: 3mph
Humidity: 87%   Direction: 220°SW
Pressure: 29.96"   Gusts: NA
Location:  41.1043°N, 89.8577°W
Report Text: KC75 261635Z AUTO 22003KT 1 3/4SM -SN BKN004 BKN008 OVC012 M05/M07 A2996 RMK AO2 T10551074
Loading
Personal Weather Stations






























Interactive Weather Map New forecast layout! Learn more

10-Day Weather Forecast

Advertisements
Track Severe Weather on mobile